createdAt,value
2023-05-21T00:01:05.804Z,100968.38
2023-05-21T00:03:33.968Z,100955.34
2023-05-21T00:06:03.560Z,100956.25
2023-05-21T00:08:34.209Z,100951.19
2023-05-21T00:11:01.985Z,100952.97
2023-05-21T00:13:29.719Z,100945.16
2023-05-21T00:15:57.525Z,100947.66
2023-05-21T00:18:25.423Z,100944.38
2023-05-21T00:20:53.444Z,100939.06
2023-05-21T00:23:21.440Z,100936.28
2023-05-21T00:25:50.635Z,100938.91
2023-05-21T00:28:18.243Z,100935.53
2023-05-21T00:30:47.301Z,100930.25
2023-05-21T00:33:15.081Z,100927.53
2023-05-21T00:35:42.914Z,100930.31
2023-05-21T00:38:10.702Z,100931.16
2023-05-21T00:40:41.234Z,100934.44
2023-05-21T00:43:10.723Z,100933.69
2023-05-21T00:45:38.749Z,100927.69
2023-05-21T00:48:08.428Z,100929.38
2023-05-21T00:50:36.475Z,100921.72
2023-05-21T00:53:04.857Z,100923.72
2023-05-21T00:55:32.783Z,100924.75
2023-05-21T00:58:00.650Z,100922.13
2023-05-21T01:00:29.885Z,100924.81
2023-05-21T01:02:57.569Z,100926.91
2023-05-21T01:05:25.565Z,100919.75
2023-05-21T01:07:53.808Z,100927.59
2023-05-21T01:10:21.648Z,100919.75
2023-05-21T01:12:49.909Z,100913.72
2023-05-21T01:15:17.997Z,100913.72
2023-05-21T01:17:48.786Z,100919.75
2023-05-21T01:20:19.116Z,100913.00
2023-05-21T01:22:55.100Z,100909.03
2023-05-21T01:25:23.118Z,100913.41
2023-05-21T01:27:51.195Z,100903.22
2023-05-21T01:30:19.803Z,100901.53
2023-05-21T01:32:50.754Z,100906.75
2023-05-21T01:35:22.315Z,100907.66
2023-05-21T01:37:56.551Z,100904.28
2023-05-21T01:40:27.800Z,100903.56
2023-05-21T01:42:55.786Z,100910.63
2023-05-21T01:45:25.336Z,100899.44
2023-05-21T01:47:55.247Z,100902.22
2023-05-21T01:50:24.385Z,100902.31
2023-05-21T01:52:52.547Z,100894.88
2023-05-21T01:55:24.838Z,100895.41
2023-05-21T01:57:53.797Z,100889.66
2023-05-21T02:00:22.031Z,100896.56
2023-05-21T02:02:50.330Z,100899.16
2023-05-21T02:05:18.473Z,100892.25
2023-05-21T02:07:47.352Z,100881.91
2023-05-21T02:10:15.822Z,100887.03
2023-05-21T02:12:45.358Z,100883.44
2023-05-21T02:15:14.443Z,100886.38
2023-05-21T02:17:42.498Z,100882.84
2023-05-21T02:20:12.201Z,100885.44
2023-05-21T02:22:40.390Z,100880.38
2023-05-21T02:25:09.321Z,100887.34
2023-05-21T02:27:37.738Z,100882.22
2023-05-21T02:30:08.986Z,100888.28
2023-05-21T02:32:37.022Z,100883.91
2023-05-21T02:35:05.614Z,100886.44
2023-05-21T02:37:35.087Z,100892.66
2023-05-21T02:40:04.250Z,100890.97
2023-05-21T02:42:31.923Z,100890.28
2023-05-21T02:44:59.713Z,100890.22
2023-05-21T02:47:28.893Z,100885.91
2023-05-21T02:49:56.447Z,100882.69
2023-05-21T02:52:24.219Z,100884.28
2023-05-21T02:54:52.858Z,100884.53
2023-05-21T02:57:20.725Z,100883.00
2023-05-21T02:59:48.504Z,100881.25
2023-05-21T03:02:16.403Z,100880.41
2023-05-21T03:04:46.979Z,100881.31
2023-05-21T03:07:15.195Z,100879.78
2023-05-21T03:09:43.047Z,100879.13
2023-05-21T03:12:11.513Z,100883.47
2023-05-21T03:14:39.589Z,100878.41
2023-05-21T03:17:07.837Z,100881.78
2023-05-21T03:19:36.384Z,100875.91
2023-05-21T03:22:05.748Z,100871.50
2023-05-21T03:24:33.632Z,100864.59
2023-05-21T03:27:02.136Z,100877.63
2023-05-21T03:29:30.156Z,100871.66
2023-05-21T03:31:58.143Z,100869.97
2023-05-21T03:34:25.992Z,100872.59
2023-05-21T03:36:53.748Z,100862.25
2023-05-21T03:39:22.923Z,100863.31
2023-05-21T03:41:50.516Z,100870.59
2023-05-21T03:44:18.322Z,100867.81
2023-05-21T03:46:46.160Z,100863.38
2023-05-21T03:49:14.983Z,100860.63
2023-05-21T03:51:42.695Z,100865.94
2023-05-21T03:54:10.545Z,100863.16
2023-05-21T03:56:39.655Z,100872.59
2023-05-21T03:59:07.418Z,100866.44
2023-05-21T04:01:35.214Z,100860.94
2023-05-21T04:04:03.209Z,100858.31
2023-05-21T04:06:31.230Z,100872.38
2023-05-21T04:08:58.958Z,100867.06
2023-05-21T04:11:27.254Z,100873.03
2023-05-21T04:13:56.380Z,100869.34
2023-05-21T04:16:24.666Z,100864.16
2023-05-21T04:18:55.521Z,100858.78
2023-05-21T04:21:23.430Z,100872.72
2023-05-21T04:23:53.903Z,100869.16
2023-05-21T04:26:22.819Z,100868.06
2023-05-21T04:28:50.663Z,100876.72
2023-05-21T04:31:19.837Z,100867.22
2023-05-21T04:33:47.455Z,100863.69
2023-05-21T04:36:17.464Z,100861.84
2023-05-21T04:38:45.262Z,100873.03
2023-05-21T04:41:14.856Z,100862.66
2023-05-21T04:43:44.049Z,100879.00
2023-05-21T04:46:11.710Z,100871.41
2023-05-21T04:48:41.020Z,100870.09
2023-05-21T04:51:08.856Z,100873.47
2023-05-21T04:53:36.647Z,100869.94
2023-05-21T04:56:04.421Z,100876.00
2023-05-21T04:58:32.903Z,100876.69
2023-05-21T05:01:03.068Z,100874.53
2023-05-21T05:03:31.335Z,100876.28
2023-05-21T05:06:04.308Z,100877.91
2023-05-21T05:08:32.048Z,100875.03
2023-05-21T05:10:59.823Z,100877.47
2023-05-21T05:13:27.587Z,100884.13
2023-05-21T05:15:55.416Z,100877.13
2023-05-21T05:18:23.162Z,100881.25
2023-05-21T05:20:51.090Z,100876.47
2023-05-21T05:23:20.429Z,100869.34
2023-05-21T05:25:48.368Z,100877.06
2023-05-21T05:28:16.104Z,100872.44
2023-05-21T05:30:44.066Z,100870.28
2023-05-21T05:33:12.502Z,100869.78
2023-05-21T05:35:40.308Z,100860.91
2023-05-21T05:38:09.048Z,100864.72
2023-05-21T05:40:38.217Z,100870.47
2023-05-21T05:43:05.798Z,100864.91
2023-05-21T05:45:33.605Z,100859.81
2023-05-21T05:48:09.160Z,100860.56
2023-05-21T05:50:37.262Z,100855.66
2023-05-21T05:53:05.056Z,100859.78
2023-05-21T05:55:32.891Z,100857.44
2023-05-21T05:58:02.014Z,100850.59
2023-05-21T06:00:29.643Z,100855.88
2023-05-21T06:02:59.680Z,100849.31
2023-05-21T06:05:28.065Z,100858.94
2023-05-21T06:07:56.120Z,100851.38
2023-05-21T06:10:24.144Z,100856.06
2023-05-21T06:12:56.178Z,100841.50
2023-05-21T06:15:25.565Z,100849.94
2023-05-21T06:17:53.685Z,100856.28
2023-05-21T06:20:21.529Z,100855.00
2023-05-21T06:22:49.334Z,100852.19
2023-05-21T06:25:18.296Z,100849.09
2023-05-21T06:27:46.136Z,100849.13
2023-05-21T06:30:14.081Z,100843.81
2023-05-21T06:32:44.348Z,100844.34
2023-05-21T06:35:12.261Z,100842.06
2023-05-21T06:37:40.085Z,100845.25
2023-05-21T06:40:09.351Z,100835.13
2023-05-21T06:42:37.272Z,100836.44
2023-05-21T06:45:05.751Z,100832.53
2023-05-21T06:47:33.571Z,100834.75
2023-05-21T06:50:02.730Z,100831.38
2023-05-21T06:52:31.766Z,100827.13
2023-05-21T06:54:59.384Z,100825.03
2023-05-21T06:57:27.198Z,100820.31
2023-05-21T06:59:54.946Z,100825.34
2023-05-21T07:02:22.873Z,100826.22
2023-05-21T07:04:51.257Z,100823.63
2023-05-21T07:07:20.552Z,100819.53
2023-05-21T07:09:48.406Z,100819.72
2023-05-21T07:12:16.230Z,100816.69
2023-05-21T07:14:44.004Z,100820.91
2023-05-21T07:17:11.938Z,100815.91
2023-05-21T07:19:39.759Z,100831.50
2023-05-21T07:22:07.682Z,100814.72
2023-05-21T07:24:36.856Z,100820.19
2023-05-21T07:27:14.332Z,100821.22
2023-05-21T07:29:52.292Z,100824.66
2023-05-21T07:32:20.181Z,100819.41
2023-05-21T07:34:48.162Z,100820.09
2023-05-21T07:37:16.049Z,100818.56
2023-05-21T07:39:45.213Z,100823.78
2023-05-21T07:42:13.020Z,100818.16
2023-05-21T07:44:40.859Z,100810.25
2023-05-21T07:47:08.664Z,100806.97
2023-05-21T07:49:36.536Z,100809.69
2023-05-21T07:52:04.505Z,100807.13
2023-05-21T07:54:32.263Z,100806.72
2023-05-21T07:57:02.936Z,100808.81
2023-05-21T07:59:30.895Z,100797.44
2023-05-21T08:01:59.071Z,100794.94
2023-05-21T08:04:27.354Z,100807.63
2023-05-21T08:06:55.227Z,100800.44
2023-05-21T08:09:23.155Z,100805.69
2023-05-21T08:11:51.041Z,100796.13
2023-05-21T08:14:20.265Z,100792.91
2023-05-21T08:16:48.401Z,100799.41
2023-05-21T08:19:16.329Z,100807.75
2023-05-21T08:21:44.226Z,100815.09
2023-05-21T08:24:12.014Z,100815.00
2023-05-21T08:26:39.835Z,100810.28
2023-05-21T08:29:07.662Z,100810.44
2023-05-21T08:31:36.844Z,100813.38
2023-05-21T08:34:04.624Z,100820.91
2023-05-21T08:36:32.962Z,100820.16
2023-05-21T08:39:01.197Z,100819.28
2023-05-21T08:41:29.913Z,100829.69
2023-05-21T08:43:58.298Z,100831.34
2023-05-21T08:46:26.933Z,100827.16
2023-05-21T08:48:56.544Z,100818.31
2023-05-21T08:51:24.375Z,100830.38
2023-05-21T08:53:52.322Z,100824.06
2023-05-21T08:56:20.176Z,100835.28
2023-05-21T08:58:48.345Z,100831.69
2023-05-21T09:01:18.713Z,100823.91
2023-05-21T09:03:47.181Z,100825.13
2023-05-21T09:06:16.544Z,100820.84
2023-05-21T09:08:46.034Z,100818.63
2023-05-21T09:11:14.971Z,100810.63
2023-05-21T09:13:43.142Z,100803.25
2023-05-21T09:16:11.098Z,100814.28
2023-05-21T09:18:38.934Z,100806.22
2023-05-21T09:21:26.182Z,100803.59
2023-05-21T09:23:56.210Z,100806.38
2023-05-21T09:26:24.099Z,100798.59
2023-05-21T09:28:52.352Z,100792.44
2023-05-21T09:31:20.232Z,100791.06
2023-05-21T09:33:48.779Z,100789.41
2023-05-21T09:36:16.444Z,100786.75
2023-05-21T09:38:46.356Z,100783.25
2023-05-21T09:41:15.902Z,100785.91
2023-05-21T09:43:45.885Z,100792.75
2023-05-21T09:46:13.840Z,100788.72
2023-05-21T09:48:42.822Z,100792.19
2023-05-21T09:51:11.969Z,100787.41
2023-05-21T09:53:49.879Z,100782.25
2023-05-21T09:56:20.250Z,100785.44
2023-05-21T09:58:48.005Z,100772.38
2023-05-21T10:01:15.902Z,100779.06
2023-05-21T10:03:47.262Z,100777.16
2023-05-21T10:06:16.665Z,100769.03
2023-05-21T10:08:46.563Z,100762.25
2023-05-21T10:11:14.936Z,100760.16
2023-05-21T10:13:46.431Z,100757.34
2023-05-21T10:16:14.655Z,100756.41
2023-05-21T10:18:43.845Z,100749.72
2023-05-21T10:21:11.759Z,100751.78
2023-05-21T10:23:40.564Z,100752.31
2023-05-21T10:26:09.825Z,100754.53
2023-05-21T10:28:37.674Z,100754.81
2023-05-21T10:31:05.554Z,100751.75
2023-05-21T10:33:34.205Z,100749.75
2023-05-21T10:36:02.188Z,100744.97
2023-05-21T10:38:30.525Z,100743.09
2023-05-21T10:40:58.740Z,100735.84
2023-05-21T10:43:36.102Z,100729.06
2023-05-21T10:46:22.554Z,100738.72
2023-05-21T10:49:22.688Z,100722.44
2023-05-21T10:51:55.887Z,100723.41
2023-05-21T10:55:01.941Z,100723.13
2023-05-21T10:57:47.730Z,100722.88
2023-05-21T11:00:18.081Z,100730.75
2023-05-21T11:02:46.717Z,100730.19
2023-05-21T11:05:14.362Z,100726.44
2023-05-21T11:07:56.370Z,100718.97
2023-05-21T11:10:38.574Z,100718.84
2023-05-21T11:13:08.851Z,100717.97
2023-05-21T11:16:08.484Z,100719.66
2023-05-21T11:19:01.622Z,100722.28
2023-05-21T11:21:35.606Z,100722.06
2023-05-21T11:24:06.429Z,100725.13
2023-05-21T11:27:02.285Z,100722.28
2023-05-21T11:29:45.917Z,100723.88
2023-05-21T11:32:17.413Z,100718.56
2023-05-21T11:34:47.024Z,100721.22
2023-05-21T11:37:34.832Z,100721.72
2023-05-21T11:40:23.890Z,100719.31
2023-05-21T11:42:53.397Z,100724.03
2023-05-21T11:45:22.036Z,100725.28
2023-05-21T11:47:51.998Z,100716.25
2023-05-21T11:50:20.774Z,100724.16
2023-05-21T11:52:50.142Z,100720.03
2023-05-21T11:55:22.780Z,100714.69
2023-05-21T11:57:54.334Z,100721.88
2023-05-21T12:00:23.116Z,100719.84
2023-05-21T12:02:55.782Z,100725.63
2023-05-21T12:05:25.062Z,100711.06
2023-05-21T12:07:54.601Z,100713.03
2023-05-21T12:10:23.209Z,100710.50
2023-05-21T12:12:56.514Z,100713.88
2023-05-21T12:15:26.532Z,100709.38
2023-05-21T12:17:56.218Z,100697.31
2023-05-21T12:20:24.396Z,100708.09
2023-05-21T12:22:52.226Z,100689.50
2023-05-21T12:25:21.259Z,100700.25
2023-05-21T12:27:50.936Z,100700.38
2023-05-21T12:30:18.975Z,100700.50
2023-05-21T12:32:46.934Z,100681.22
2023-05-21T12:35:25.332Z,100686.47
2023-05-21T12:37:53.283Z,100689.97
2023-05-21T12:40:22.236Z,100685.81
2023-05-21T12:42:50.823Z,100687.09
2023-05-21T12:45:19.041Z,100686.25
2023-05-21T12:47:50.167Z,100673.44
2023-05-21T12:50:21.836Z,100673.38
2023-05-21T12:52:51.125Z,100683.69
2023-05-21T12:55:18.948Z,100664.91
2023-05-21T12:57:46.998Z,100675.34
2023-05-21T13:00:15.172Z,100678.69
2023-05-21T13:02:44.911Z,100664.22
2023-05-21T13:05:17.646Z,100664.41
2023-05-21T13:07:47.518Z,100669.81
2023-05-21T13:10:20.125Z,100663.41
2023-05-21T13:12:48.038Z,100663.78
2023-05-21T13:15:16.159Z,100666.25
2023-05-21T13:17:43.941Z,100658.13
2023-05-21T13:20:13.149Z,100668.63
2023-05-21T13:22:43.367Z,100654.00
2023-05-21T13:25:11.714Z,100646.75
2023-05-21T13:27:42.143Z,100647.38
2023-05-21T13:30:11.639Z,100649.72
2023-05-21T13:32:40.287Z,100647.38
2023-05-21T13:35:09.996Z,100643.72
2023-05-21T13:37:38.016Z,100637.25
2023-05-21T13:40:06.893Z,100645.16
2023-05-21T13:42:35.240Z,100650.56
2023-05-21T13:45:04.787Z,100653.97
2023-05-21T13:47:33.483Z,100657.91
2023-05-21T13:50:01.563Z,100654.56
2023-05-21T13:52:29.303Z,100653.56
2023-05-21T13:54:57.224Z,100653.00
2023-05-21T13:57:26.808Z,100642.94
2023-05-21T13:59:54.683Z,100651.22
2023-05-21T14:02:24.117Z,100641.00
2023-05-21T14:04:51.978Z,100638.59
2023-05-21T14:07:19.835Z,100637.84
2023-05-21T14:09:48.275Z,100639.72
2023-05-21T14:12:16.905Z,100636.97
2023-05-21T14:14:44.785Z,100639.38
2023-05-21T14:17:12.581Z,100638.09
2023-05-21T14:19:41.825Z,100636.22
2023-05-21T14:22:09.762Z,100633.00
2023-05-21T14:24:39.529Z,100646.53
2023-05-21T14:27:07.414Z,100636.66
2023-05-21T14:29:35.206Z,100633.91
2023-05-21T14:32:03.038Z,100637.34
2023-05-21T14:34:30.900Z,100638.41
2023-05-21T14:37:00.104Z,100642.06
2023-05-21T14:39:28.121Z,100637.91
2023-05-21T14:41:55.956Z,100641.72
2023-05-21T14:44:23.838Z,100636.06
2023-05-21T14:46:51.680Z,100646.41
2023-05-21T14:49:19.495Z,100638.06
2023-05-21T14:51:47.688Z,100644.72
2023-05-21T14:54:17.090Z,100650.38
2023-05-21T14:56:44.968Z,100642.25
2023-05-21T14:59:14.327Z,100636.59
2023-05-21T15:01:42.449Z,100646.91
2023-05-21T15:04:10.394Z,100640.41
2023-05-21T15:06:38.273Z,100637.75
2023-05-21T15:09:06.051Z,100640.41
2023-05-21T15:11:36.032Z,100634.59
2023-05-21T15:14:03.860Z,100634.75
2023-05-21T15:16:31.706Z,100631.38
2023-05-21T15:18:59.524Z,100640.13
2023-05-21T15:21:28.187Z,100619.84
2023-05-21T15:23:56.145Z,100622.81
2023-05-21T15:26:25.375Z,100623.59
2023-05-21T15:28:54.593Z,100614.41
2023-05-21T15:31:22.436Z,100610.22
2023-05-21T15:33:50.299Z,100621.81
2023-05-21T15:36:18.097Z,100613.78
2023-05-21T15:38:46.269Z,100608.13
2023-05-21T15:41:14.092Z,100605.28
2023-05-21T15:43:42.432Z,100601.97
2023-05-21T15:46:12.692Z,100601.81
2023-05-21T15:48:40.569Z,100599.19
2023-05-21T15:51:08.402Z,100596.53
2023-05-21T15:53:36.401Z,100587.53
2023-05-21T15:56:04.424Z,100603.47
2023-05-21T15:58:32.400Z,100593.34
2023-05-21T16:01:00.256Z,100591.50
2023-05-21T16:03:29.527Z,100589.69
2023-05-21T16:05:57.447Z,100591.81
2023-05-21T16:08:25.508Z,100590.06
2023-05-21T16:10:53.491Z,100597.53
2023-05-21T16:13:21.247Z,100598.06
2023-05-21T16:15:49.094Z,100602.50
2023-05-21T16:18:17.004Z,100594.84
2023-05-21T16:20:46.270Z,100602.13
2023-05-21T16:23:14.084Z,100599.78
2023-05-21T16:25:42.070Z,100605.25
2023-05-21T16:28:09.841Z,100598.13
2023-05-21T16:30:37.718Z,100593.50
2023-05-21T16:33:05.932Z,100583.56
2023-05-21T16:35:33.809Z,100582.56
2023-05-21T16:38:03.032Z,100589.53
2023-05-21T16:40:31.474Z,100589.38
2023-05-21T16:43:02.032Z,100594.38
2023-05-21T16:45:36.178Z,100585.59
2023-05-21T16:48:04.291Z,100575.34
2023-05-21T16:50:32.191Z,100567.69
2023-05-21T16:53:02.334Z,100563.03
2023-05-21T16:55:31.927Z,100569.22
2023-05-21T16:57:59.780Z,100568.13
2023-05-21T17:00:27.701Z,100567.88
2023-05-21T17:02:55.775Z,100571.69
2023-05-21T17:07:53.751Z,100572.03
2023-05-21T17:10:21.604Z,100582.31
2023-05-21T17:12:50.982Z,100581.47
2023-05-21T17:15:18.769Z,100586.09
2023-05-21T17:17:46.677Z,100582.09
2023-05-21T17:20:14.825Z,100584.94
2023-05-21T17:22:42.640Z,100586.72
2023-05-21T17:25:10.846Z,100586.16
2023-05-21T17:27:38.648Z,100593.06
2023-05-21T17:30:10.189Z,100600.34
2023-05-21T17:32:38.010Z,100591.56
2023-05-21T17:35:06.471Z,100604.16
2023-05-21T17:37:34.265Z,100605.66
2023-05-21T17:40:02.050Z,100603.50
2023-05-21T17:42:29.945Z,100607.81
2023-05-21T17:44:57.736Z,100600.84
2023-05-21T17:47:26.886Z,100605.91
2023-05-21T17:49:54.721Z,100615.72
2023-05-21T17:52:22.573Z,100609.00
2023-05-21T17:54:50.515Z,100606.81
2023-05-21T17:57:19.949Z,100606.44
2023-05-21T17:59:47.802Z,100608.84
2023-05-21T18:02:15.626Z,100614.25
2023-05-21T18:04:44.764Z,100599.72
2023-05-21T18:07:12.514Z,100601.50
2023-05-21T18:09:40.295Z,100606.97
2023-05-21T18:12:08.752Z,100600.00
2023-05-21T18:14:36.606Z,100610.91
2023-05-21T18:17:04.473Z,100614.75
2023-05-21T18:19:32.821Z,100602.19
2023-05-21T18:22:03.098Z,100605.44
2023-05-21T18:24:30.935Z,100603.09
2023-05-21T18:26:58.799Z,100599.75
2023-05-21T18:29:26.671Z,100608.38
2023-05-21T18:31:54.745Z,100605.34
2023-05-21T18:34:22.713Z,100608.13
2023-05-21T18:36:50.650Z,100595.88
2023-05-21T18:39:24.415Z,100596.88
2023-05-21T18:42:01.520Z,100599.38
2023-05-21T18:44:33.353Z,100606.34
2023-05-21T18:47:01.773Z,100596.56
2023-05-21T18:49:33.833Z,100593.06
2023-05-21T18:52:01.676Z,100583.75
2023-05-21T18:54:30.857Z,100588.69
2023-05-21T18:57:00.449Z,100583.97
2023-05-21T18:59:29.240Z,100589.47
2023-05-21T19:01:57.209Z,100587.69
2023-05-21T19:04:25.059Z,100594.72
2023-05-21T19:06:52.842Z,100592.22
2023-05-21T19:09:20.800Z,100592.81
2023-05-21T19:11:50.430Z,100596.34
2023-05-21T19:14:20.304Z,100599.28
2023-05-21T19:16:48.134Z,100602.22
2023-05-21T19:19:16.606Z,100605.69
2023-05-21T19:21:44.596Z,100611.13
2023-05-21T19:24:12.403Z,100603.19
2023-05-21T19:26:40.234Z,100605.00
2023-05-21T19:29:09.796Z,100620.88
2023-05-21T19:31:39.078Z,100612.25
2023-05-21T19:34:10.499Z,100616.56
2023-05-21T19:36:52.013Z,100622.03
2023-05-21T19:39:21.069Z,100616.84
2023-05-21T19:41:48.834Z,100619.66
2023-05-21T19:44:18.311Z,100615.19
2023-05-21T19:46:46.074Z,100619.66
2023-05-21T19:49:15.888Z,100618.16
2023-05-21T19:51:43.806Z,100616.91
2023-05-21T19:54:11.612Z,100614.81
2023-05-21T19:56:39.525Z,100611.38
2023-05-21T19:59:07.328Z,100613.31
2023-05-21T20:01:39.517Z,100616.94
2023-05-21T20:04:07.835Z,100605.50
2023-05-21T20:06:35.803Z,100610.97
2023-05-21T20:09:04.073Z,100614.72
2023-05-21T20:11:31.845Z,100602.72
2023-05-21T20:13:59.724Z,100601.31
2023-05-21T20:16:27.581Z,100607.59
2023-05-21T20:18:58.305Z,100617.50
2023-05-21T20:21:26.216Z,100618.34
2023-05-21T20:23:54.611Z,100626.28
2023-05-21T20:26:23.186Z,100638.66
2023-05-21T20:28:51.008Z,100639.91
2023-05-21T20:31:19.098Z,100632.28
2023-05-21T20:33:46.976Z,100628.09
2023-05-21T20:36:17.753Z,100629.09
2023-05-21T20:38:47.234Z,100637.19
2023-05-21T20:41:15.231Z,100622.28
2023-05-21T20:43:45.382Z,100614.06
2023-05-21T20:46:13.564Z,100606.41
2023-05-21T20:48:41.797Z,100614.81
2023-05-21T20:51:09.608Z,100619.38
2023-05-21T20:53:38.758Z,100624.84
2023-05-21T20:56:08.300Z,100638.59
2023-05-21T20:58:36.291Z,100647.75
2023-05-21T21:01:04.104Z,100647.66
2023-05-21T21:03:34.346Z,100648.25
2023-05-21T21:06:03.068Z,100634.88
2023-05-21T21:08:31.049Z,100648.63
2023-05-21T21:11:00.255Z,100655.72
2023-05-21T21:13:28.125Z,100664.56
2023-05-21T21:15:56.007Z,100673.53
2023-05-21T21:18:23.936Z,100673.53
2023-05-21T21:20:51.799Z,100683.97
2023-05-21T21:23:19.612Z,100678.47
2023-05-21T21:25:47.464Z,100678.72
2023-05-21T21:28:16.681Z,100682.31
2023-05-21T21:30:45.032Z,100685.75
2023-05-21T21:33:14.284Z,100683.75
2023-05-21T21:35:42.440Z,100683.59
2023-05-21T21:38:10.219Z,100682.53
2023-05-21T21:40:38.318Z,100683.25
2023-05-21T21:43:06.335Z,100683.25
2023-05-21T21:45:35.543Z,100683.50
2023-05-21T21:48:03.473Z,100675.94
2023-05-21T21:50:31.342Z,100672.59
2023-05-21T21:52:59.939Z,100655.50
2023-05-21T21:55:27.823Z,100660.53
2023-05-21T21:57:55.759Z,100655.75
2023-05-21T22:00:26.674Z,100659.34
2023-05-21T22:02:56.723Z,100656.69
2023-05-21T22:05:24.590Z,100654.06
2023-05-21T22:07:52.579Z,100650.47
2023-05-21T22:10:21.283Z,100650.72
2023-05-21T22:12:49.297Z,100650.72
2023-05-21T22:15:23.874Z,100639.25
2023-05-21T22:17:52.038Z,100639.94
2023-05-21T22:20:22.049Z,100639.00
2023-05-21T22:22:50.454Z,100630.00
2023-05-21T22:25:18.340Z,100627.66
2023-05-21T22:27:46.153Z,100627.16
2023-05-21T22:30:14.266Z,100613.78
2023-05-21T22:32:42.073Z,100618.78
2023-05-21T22:35:10.611Z,100615.78
2023-05-21T22:37:39.955Z,100601.34
2023-05-21T22:40:09.187Z,100604.06
2023-05-21T22:42:37.089Z,100603.09
2023-05-21T22:45:05.717Z,100609.00
2023-05-21T22:47:33.517Z,100608.84
2023-05-21T22:50:04.394Z,100604.44
2023-05-21T22:52:32.413Z,100621.28
2023-05-21T22:55:01.831Z,100620.22
2023-05-21T22:57:29.819Z,100632.06
2023-05-21T22:59:57.642Z,100638.63
2023-05-21T23:02:25.597Z,100639.19
2023-05-21T23:04:53.424Z,100643.97
2023-05-21T23:07:21.280Z,100641.56
2023-05-21T23:09:51.661Z,100636.31
2023-05-21T23:12:20.916Z,100627.47
2023-05-21T23:14:48.645Z,100641.09
2023-05-21T23:17:16.398Z,100640.63
2023-05-21T23:19:44.163Z,100641.75
2023-05-21T23:22:11.973Z,100636.97
2023-05-21T23:24:39.735Z,100621.06
2023-05-21T23:27:07.700Z,100634.94
2023-05-21T23:29:36.882Z,100627.06
2023-05-21T23:32:05.654Z,100621.91
2023-05-21T23:34:33.487Z,100621.19
2023-05-21T23:37:01.353Z,100619.50
2023-05-21T23:39:29.523Z,100615.91
2023-05-21T23:41:57.556Z,100627.16
2023-05-21T23:44:25.371Z,100612.22
2023-05-21T23:46:54.493Z,100619.03
2023-05-21T23:49:22.235Z,100607.69
2023-05-21T23:51:51.394Z,100616.53
2023-05-21T23:54:19.191Z,100611.50
2023-05-21T23:56:47.571Z,100610.78
2023-05-21T23:59:17.700Z,100610.06
